Maersk Jubail — 9HA4558 — position and weather

sailwx.info

Track history (hours):
 
Tides and Currents Weather Stations Pressure Air Temp Water Temp Dewpoint Dewpoint Depression Visibility Wind Speed Wind Dir Waves Ship Positions

Maersk Jubail

Last reported at 2017-Nov-15 10:26 UTC. Time now 2017-Nov-24 20:54 UTC.
Position N 27°44' W 013°47'.
Warning: this ship's position is 9 days out of date.

Length 222 m; draft 11.2 m.

Type: Cargo ship. MMSI: 248206000.

Date/timePositionNaut miles runAvg speedWind from/ knotsBaromVisibWave heightAir tempDewpointWater temp
2017-Nov-15 10:26N 27°44' W 013°47'2812.2
2017-Nov-15 08:09N 28°07' W 013°29'3912.0
2017-Nov-15 04:53N 28°41' W 013°06'2312.3
2017-Nov-15 03:03N 28°60' W 012°51'212.3
2017-Nov-15 02:52N 29°02' W 012°50'56611.6
2017-Nov-13 02:00N 36°04' W 005°23'510.6
2017-Nov-13 01:30N 36°09' W 005°25'1 1.3
2017-Nov-13 00:58N 36°09' W 005°26'0 0.0
2017-Nov-13 00:28N 36°09' W 005°26'0 0.0
2017-Nov-12 23:55N 36°09' W 005°26'0 0.0
2017-Nov-12 23:25N 36°09' W 005°26'0 0.0
2017-Nov-12 22:13N 36°09' W 005°26'0 0.0
2017-Nov-12 21:58N 36°09' W 005°26'0 0.0
2017-Nov-12 21:25N 36°09' W 005°26'0 0.0
2017-Nov-12 20:58N 36°09' W 005°26'0 0.0
2017-Nov-12 20:28N 36°09' W 005°26'0 0.0
2017-Nov-12 19:58N 36°09' W 005°26'0 0.0
2017-Nov-12 19:28N 36°09' W 005°26'0 0.0
2017-Nov-12 18:58N 36°09' W 005°26'0 0.0
2017-Nov-12 17:22N 36°09' W 005°26'0 0.0
2017-Nov-12 16:58N 36°09' W 005°26'0 0.0
2017-Nov-12 16:28N 36°09' W 005°26'0 0.0
2017-Nov-12 15:58N 36°09' W 005°26'0 0.0
2017-Nov-12 15:28N 36°09' W 005°26'0 0.0
2017-Nov-12 14:58N 36°09' W 005°26'0 0.0
2017-Nov-12 14:28N 36°09' W 005°26'0 0.0
2017-Nov-12 13:58N 36°09' W 005°26'0 0.0
2017-Nov-12 13:28N 36°09' W 005°26'0 0.0
2017-Nov-12 13:00N 36°09' W 005°26'2 4.1
2017-Nov-12 12:31N 36°10' W 005°24'0 0.3
2017-Nov-12 12:00N 36°10' W 005°25'0 0.0
2017-Nov-12 07:12N 36°10' W 005°24'0 0.1
2017-Nov-12 07:00N 36°10' W 005°24'0 0.1
2017-Nov-12 06:15N 36°10' W 005°24'0 0.0
2017-Nov-12 05:57N 36°10' W 005°24'0 0.0
2017-Nov-12 04:12N 36°10' W 005°24'0 0.0
2017-Nov-12 03:54N 36°10' W 005°24'0 0.0
2017-Nov-12 03:24N 36°10' W 005°24'0 0.0
2017-Nov-12 02:33N 36°10' W 005°24'0 0.0
2017-Nov-12 02:27N 36°10' W 005°24'0 0.0
2017-Nov-11 22:21N 36°10' W 005°24'0 0.1
2017-Nov-11 22:00N 36°10' W 005°25'0 0.0
2017-Nov-11 21:27N 36°10' W 005°25'0 0.1
2017-Nov-11 21:00N 36°10' W 005°24'0 0.0
2017-Nov-11 20:30N 36°10' W 005°24'0 0.1
2017-Nov-11 20:00N 36°10' W 005°25'0 0.0
2017-Nov-11 19:24N 36°10' W 005°25'0 0.1
2017-Nov-11 18:18N 36°10' W 005°25'0 0.1
2017-Nov-11 18:00N 36°10' W 005°25'0 0.1
2017-Nov-11 17:30N 36°10' W 005°25'0 0.1
2017-Nov-11 17:00N 36°10' W 005°25'0 0.2
2017-Nov-11 16:05N 36°10' W 005°24'0 4.0
2017-Nov-11 15:59N 36°10' W 005°24'4 7.7
2017-Nov-11 15:30N 36°06' W 005°24'510.7
2017-Nov-11 15:00N 36°01' W 005°23'381 8.3
2017-Nov-09 17:04N 31°53' W 011°11'116.0
2017-Nov-09 17:00N 31°52' W 011°12'4215.9
2017-Nov-09 14:22N 31°25' W 011°49'616.0
2017-Nov-09 14:00N 31°21' W 011°54'815.9
2017-Nov-09 13:30N 31°16' W 012°01'915.9
2017-Nov-09 12:55N 31°09' W 012°09'716.1
2017-Nov-09 12:31N 31°04' W 012°14'3516.0
2017-Nov-09 10:20N 30°38' W 012°41'9014.7
2017-Nov-09 04:12N 29°33' W 013°54'314.2
2017-Nov-09 04:00N 29°31' W 013°56'714.1
2017-Nov-09 03:30N 29°26' W 014°02'713.8
2017-Nov-09 02:59N 29°21' W 014°07'713.8
2017-Nov-09 02:29N 29°15' W 014°12'714.0
2017-Nov-09 02:00N 29°10' W 014°16'1113.8
2017-Nov-09 01:11N 29°01' W 014°24'314.0
2017-Nov-09 00:58N 28°58' W 014°26'714.3
2017-Nov-09 00:28N 28°53' W 014°31'714.4
2017-Nov-08 23:58N 28°47' W 014°36'714.1
2017-Nov-08 23:30N 28°42' W 014°41'714.0
2017-Nov-08 23:00N 28°37' W 014°47'714.3
2017-Nov-08 22:30N 28°32' W 014°52'714.6
2017-Nov-08 22:00N 28°26' W 014°57'714.8
2017-Nov-08 21:30N 28°20' W 015°03'815.1
2017-Nov-08 21:00N 28°15' W 015°09'815.3
2017-Nov-08 20:30N 28°10' W 015°15'815.2
2017-Nov-08 20:00N 28°07' W 015°23'1 2.0
2017-Nov-08 19:28N 28°06' W 015°24'0 0.0
2017-Nov-08 18:49N 28°06' W 015°24'0 0.0
2017-Nov-08 18:19N 28°06' W 015°24'0 0.0
2017-Nov-08 17:49N 28°06' W 015°24'0 0.0
2017-Nov-08 17:22N 28°06' W 015°24'0 0.1
2017-Nov-08 16:52N 28°06' W 015°24'0 0.1
2017-Nov-08 16:22N 28°06' W 015°24'0 0.0
2017-Nov-08 15:52N 28°06' W 015°24'0 0.0
2017-Nov-08 15:22N 28°06' W 015°24'0 0.0
2017-Nov-08 14:55N 28°06' W 015°24'0 0.0
2017-Nov-08 14:25N 28°06' W 015°24'0 0.0
2017-Nov-08 13:55N 28°06' W 015°24'0 0.0
2017-Nov-08 13:25N 28°06' W 015°24'0 0.5
2017-Nov-08 13:00N 28°06' W 015°24'2 4.1
2017-Nov-08 12:30N 28°07' W 015°22'612.7
2017-Nov-08 12:00N 28°07' W 015°15'816.3
2017-Nov-08 11:30N 28°06' W 015°06'815.8
2017-Nov-08 11:00N 28°04' W 014°57'713.8
2017-Nov-08 10:30N 27°57' W 014°58'816.1
2017-Nov-08 10:00N 27°50' W 015°01'816.3
2017-Nov-08 09:30N 27°42' W 015°05'816.5
2017-Nov-08 09:00N 27°35' W 015°09'  
Track history (hours):
 
Tides and Currents Weather Stations Pressure Air Temp Water Temp Dewpoint Dewpoint Depression Visibility Wind Speed Wind Dir Waves Ship Positions

Maersk Jubail

Last reported at 2017-Nov-15 10:26 UTC. Time now 2017-Nov-24 20:54 UTC.
Position N 27°44' W 013°47'.
Warning: this ship's position is 9 days out of date.

Length 222 m; draft 11.2 m.

Type: Cargo ship. MMSI: 248206000.

Date/timePositionNaut miles runAvg speedWind from/ knotsBaromVisibWave heightAir tempDewpointWater temp
2017-Nov-15 10:26N 27°44' W 013°47'2812.2
2017-Nov-15 08:09N 28°07' W 013°29'3912.0
2017-Nov-15 04:53N 28°41' W 013°06'2312.3
2017-Nov-15 03:03N 28°60' W 012°51'212.3
2017-Nov-15 02:52N 29°02' W 012°50'56611.6
2017-Nov-13 02:00N 36°04' W 005°23'510.6
2017-Nov-13 01:30N 36°09' W 005°25'1 1.3
2017-Nov-13 00:58N 36°09' W 005°26'0 0.0
2017-Nov-13 00:28N 36°09' W 005°26'0 0.0
2017-Nov-12 23:55N 36°09' W 005°26'0 0.0
2017-Nov-12 23:25N 36°09' W 005°26'0 0.0
2017-Nov-12 22:13N 36°09' W 005°26'0 0.0
2017-Nov-12 21:58N 36°09' W 005°26'0 0.0
2017-Nov-12 21:25N 36°09' W 005°26'0 0.0
2017-Nov-12 20:58N 36°09' W 005°26'0 0.0
2017-Nov-12 20:28N 36°09' W 005°26'0 0.0
2017-Nov-12 19:58N 36°09' W 005°26'0 0.0
2017-Nov-12 19:28N 36°09' W 005°26'0 0.0
2017-Nov-12 18:58N 36°09' W 005°26'0 0.0
2017-Nov-12 17:22N 36°09' W 005°26'0 0.0
2017-Nov-12 16:58N 36°09' W 005°26'0 0.0
2017-Nov-12 16:28N 36°09' W 005°26'0 0.0
2017-Nov-12 15:58N 36°09' W 005°26'0 0.0
2017-Nov-12 15:28N 36°09' W 005°26'0 0.0
2017-Nov-12 14:58N 36°09' W 005°26'0 0.0
2017-Nov-12 14:28N 36°09' W 005°26'0 0.0
2017-Nov-12 13:58N 36°09' W 005°26'0 0.0
2017-Nov-12 13:28N 36°09' W 005°26'0 0.0
2017-Nov-12 13:00N 36°09' W 005°26'2 4.1
2017-Nov-12 12:31N 36°10' W 005°24'0 0.3
2017-Nov-12 12:00N 36°10' W 005°25'0 0.0
2017-Nov-12 07:12N 36°10' W 005°24'0 0.1
2017-Nov-12 07:00N 36°10' W 005°24'0 0.1
2017-Nov-12 06:15N 36°10' W 005°24'0 0.0
2017-Nov-12 05:57N 36°10' W 005°24'0 0.0
2017-Nov-12 04:12N 36°10' W 005°24'0 0.0
2017-Nov-12 03:54N 36°10' W 005°24'0 0.0
2017-Nov-12 03:24N 36°10' W 005°24'0 0.0
2017-Nov-12 02:33N 36°10' W 005°24'0 0.0
2017-Nov-12 02:27N 36°10' W 005°24'0 0.0
2017-Nov-11 22:21N 36°10' W 005°24'0 0.1
2017-Nov-11 22:00N 36°10' W 005°25'0 0.0
2017-Nov-11 21:27N 36°10' W 005°25'0 0.1
2017-Nov-11 21:00N 36°10' W 005°24'0 0.0
2017-Nov-11 20:30N 36°10' W 005°24'0 0.1
2017-Nov-11 20:00N 36°10' W 005°25'0 0.0
2017-Nov-11 19:24N 36°10' W 005°25'0 0.1
2017-Nov-11 18:18N 36°10' W 005°25'0 0.1
2017-Nov-11 18:00N 36°10' W 005°25'0 0.1
2017-Nov-11 17:30N 36°10' W 005°25'0 0.1
2017-Nov-11 17:00N 36°10' W 005°25'0 0.2
2017-Nov-11 16:05N 36°10' W 005°24'0 4.0
2017-Nov-11 15:59N 36°10' W 005°24'4 7.7
2017-Nov-11 15:30N 36°06' W 005°24'510.7
2017-Nov-11 15:00N 36°01' W 005°23'381 8.3
2017-Nov-09 17:04N 31°53' W 011°11'116.0
2017-Nov-09 17:00N 31°52' W 011°12'4215.9
2017-Nov-09 14:22N 31°25' W 011°49'616.0
2017-Nov-09 14:00N 31°21' W 011°54'815.9
2017-Nov-09 13:30N 31°16' W 012°01'915.9
2017-Nov-09 12:55N 31°09' W 012°09'716.1
2017-Nov-09 12:31N 31°04' W 012°14'3516.0
2017-Nov-09 10:20N 30°38' W 012°41'9014.7
2017-Nov-09 04:12N 29°33' W 013°54'314.2
2017-Nov-09 04:00N 29°31' W 013°56'714.1
2017-Nov-09 03:30N 29°26' W 014°02'713.8
2017-Nov-09 02:59N 29°21' W 014°07'713.8
2017-Nov-09 02:29N 29°15' W 014°12'714.0
2017-Nov-09 02:00N 29°10' W 014°16'1113.8
2017-Nov-09 01:11N 29°01' W 014°24'314.0
2017-Nov-09 00:58N 28°58' W 014°26'714.3
2017-Nov-09 00:28N 28°53' W 014°31'714.4
2017-Nov-08 23:58N 28°47' W 014°36'714.1
2017-Nov-08 23:30N 28°42' W 014°41'714.0
2017-Nov-08 23:00N 28°37' W 014°47'714.3
2017-Nov-08 22:30N 28°32' W 014°52'714.6
2017-Nov-08 22:00N 28°26' W 014°57'714.8
2017-Nov-08 21:30N 28°20' W 015°03'815.1
2017-Nov-08 21:00N 28°15' W 015°09'815.3
2017-Nov-08 20:30N 28°10' W 015°15'815.2
2017-Nov-08 20:00N 28°07' W 015°23'1 2.0
2017-Nov-08 19:28N 28°06' W 015°24'0 0.0
2017-Nov-08 18:49N 28°06' W 015°24'0 0.0
2017-Nov-08 18:19N 28°06' W 015°24'0 0.0
2017-Nov-08 17:49N 28°06' W 015°24'0 0.0
2017-Nov-08 17:22N 28°06' W 015°24'0 0.1
2017-Nov-08 16:52N 28°06' W 015°24'0 0.1
2017-Nov-08 16:22N 28°06' W 015°24'0 0.0
2017-Nov-08 15:52N 28°06' W 015°24'0 0.0
2017-Nov-08 15:22N 28°06' W 015°24'0 0.0
2017-Nov-08 14:55N 28°06' W 015°24'0 0.0
2017-Nov-08 14:25N 28°06' W 015°24'0 0.0
2017-Nov-08 13:55N 28°06' W 015°24'0 0.0
2017-Nov-08 13:25N 28°06' W 015°24'0 0.5
2017-Nov-08 13:00N 28°06' W 015°24'2 4.1
2017-Nov-08 12:30N 28°07' W 015°22'612.7
2017-Nov-08 12:00N 28°07' W 015°15'816.3
2017-Nov-08 11:30N 28°06' W 015°06'815.8
2017-Nov-08 11:00N 28°04' W 014°57'713.8
2017-Nov-08 10:30N 27°57' W 014°58'816.1
2017-Nov-08 10:00N 27°50' W 015°01'816.3
2017-Nov-08 09:30N 27°42' W 015°05'816.5
2017-Nov-08 09:00N 27°35' W 015°09'  

Dump ship's entire track history